Staten Island, New York
Current Conditions -  °F | °C
As of 9:35 AM on Saturday 20 Dec 2014 (Local Time) from KLDJ Reporting Station
Overcast Overcast  
Wind Chill: 31°   Ceiling: 2700
Heat Index: 36°   Visibility: 10mi
Dew Point: 25°   Wind: 6mph
Humidity: 65%   Direction: 300°WNW
Pressure: 30.33"   Gusts: NA
Location:  40.58°N, 74.13°W
Report Text: KLDJ 201435Z AUTO 30005KT 10SM OVC027 02/M04 A3033 RMK AO2 T00201040
Loading
Personal Weather Stations






























Interactive Weather Map New forecast layout! Learn more

10-Day Weather Forecast

Advertisements
Track Severe Weather on mobile